createdAt,value
2017-02-06T00:00:49.083Z,7.04
2017-02-06T00:01:59.056Z,7.09
2017-02-06T00:03:09.402Z,7.13
2017-02-06T00:04:20.175Z,7.11
2017-02-06T00:05:30.528Z,7.12
2017-02-06T00:06:41.268Z,7.15
2017-02-06T00:07:52.012Z,7.21
2017-02-06T00:09:02.386Z,7.19
2017-02-06T00:10:13.181Z,7.12
2017-02-06T00:11:23.988Z,7.16
2017-02-06T00:12:33.949Z,7.18
2017-02-06T00:13:44.292Z,7.13
2017-02-06T00:14:55.046Z,7.11
2017-02-06T00:16:05.795Z,7.08
2017-02-06T00:17:16.602Z,7.16
2017-02-06T00:18:27.360Z,7.11
2017-02-06T00:19:37.718Z,7.15
2017-02-06T00:20:48.063Z,7.11
2017-02-06T00:21:58.820Z,7.16
2017-02-06T00:23:09.587Z,7.15
2017-02-06T00:24:20.329Z,7.16
2017-02-06T00:25:31.112Z,7.22
2017-02-06T00:26:41.868Z,7.18
2017-02-06T00:27:52.613Z,7.18
2017-02-06T00:29:02.620Z,7.29
2017-02-06T00:30:12.175Z,7.3
2017-02-06T00:31:21.724Z,7.23
2017-02-06T00:32:32.468Z,7.21
2017-02-06T00:33:43.252Z,7.34
2017-02-06T00:34:53.605Z,7.39
2017-02-06T00:36:03.960Z,7.37
2017-02-06T00:37:14.312Z,7.34
2017-02-06T00:38:25.056Z,7.44
2017-02-06T00:39:35.427Z,7.54
2017-02-06T00:40:45.778Z,7.51
2017-02-06T00:41:55.740Z,7.56
2017-02-06T00:43:06.498Z,7.61
2017-02-06T00:44:17.245Z,7.61
2017-02-06T00:45:26.813Z,7.61
2017-02-06T00:46:36.776Z,7.73
2017-02-06T00:47:46.761Z,7.71
2017-02-06T00:48:57.504Z,7.73
2017-02-06T00:50:07.457Z,7.7
2017-02-06T00:51:18.203Z,7.73
2017-02-06T00:52:28.549Z,7.64
2017-02-06T00:53:39.298Z,7.75
2017-02-06T00:54:49.631Z,7.68
2017-02-06T00:55:59.592Z,7.67
2017-02-06T00:57:10.351Z,7.67
2017-02-06T00:58:20.705Z,7.64
2017-02-06T00:59:30.666Z,7.67
2017-02-06T01:00:41.401Z,7.73
2017-02-06T01:01:52.148Z,7.67
2017-02-06T01:03:01.719Z,7.74
2017-02-06T01:04:12.076Z,7.73
2017-02-06T01:05:22.829Z,7.71
2017-02-06T01:06:33.571Z,7.75
2017-02-06T01:07:44.304Z,7.73
2017-02-06T01:08:55.048Z,7.78
2017-02-06T01:10:05.419Z,7.73
2017-02-06T01:11:16.161Z,7.74
2017-02-06T01:12:26.904Z,7.73
2017-02-06T01:13:37.658Z,7.71
2017-02-06T01:14:48.016Z,7.75
2017-02-06T01:15:58.770Z,7.77
2017-02-06T01:17:09.115Z,7.75
2017-02-06T01:18:19.468Z,7.77
2017-02-06T01:19:30.206Z,7.74
2017-02-06T01:20:40.561Z,7.74
2017-02-06T01:21:51.312Z,7.78
2017-02-06T01:23:02.070Z,7.78
2017-02-06T01:24:12.026Z,7.83
2017-02-06T01:25:22.808Z,7.86
2017-02-06T01:26:32.780Z,7.77
2017-02-06T01:27:43.130Z,7.71
2017-02-06T01:28:53.486Z,7.74
2017-02-06T01:30:03.860Z,7.73
2017-02-06T01:31:13.815Z,7.74
2017-02-06T01:32:23.758Z,7.7
2017-02-06T01:33:34.515Z,7.67
2017-02-06T01:34:44.850Z,7.68
2017-02-06T01:35:55.611Z,7.73
2017-02-06T01:37:06.358Z,7.74
2017-02-06T01:38:16.712Z,7.77
2017-02-06T01:39:27.061Z,7.8
2017-02-06T01:40:37.449Z,7.73
2017-02-06T01:41:48.240Z,7.7
2017-02-06T01:42:58.601Z,7.75
2017-02-06T01:44:08.162Z,7.74
2017-02-06T01:45:18.913Z,7.78
2017-02-06T01:46:29.266Z,7.7
2017-02-06T01:47:39.222Z,7.78
2017-02-06T01:48:49.980Z,7.78
2017-02-06T01:49:59.549Z,7.8
2017-02-06T01:51:08.715Z,7.74
2017-02-06T01:52:19.462Z,7.78
2017-02-06T01:53:29.416Z,7.73
2017-02-06T01:54:40.162Z,7.75
2017-02-06T01:55:50.905Z,7.75
2017-02-06T01:57:01.330Z,7.77
2017-02-06T01:58:11.693Z,7.75
2017-02-06T01:59:22.444Z,7.71
2017-02-06T02:00:32.457Z,7.77
2017-02-06T02:01:43.217Z,7.74
2017-02-06T02:02:53.614Z,7.73
2017-02-06T02:04:04.373Z,7.73
2017-02-06T02:05:14.738Z,7.74
2017-02-06T02:06:25.481Z,7.74
2017-02-06T02:07:36.222Z,7.75
2017-02-06T02:08:46.959Z,7.68
2017-02-06T02:09:57.316Z,7.7
2017-02-06T02:11:07.668Z,7.71
2017-02-06T02:12:18.273Z,7.63
2017-02-06T02:13:29.011Z,7.61
2017-02-06T02:14:39.761Z,7.64
2017-02-06T02:15:50.116Z,7.58
2017-02-06T02:17:00.475Z,7.49
2017-02-06T02:18:10.038Z,7.54
2017-02-06T02:19:20.384Z,7.54
2017-02-06T02:20:31.131Z,7.55
2017-02-06T02:21:41.086Z,7.48
2017-02-06T02:22:50.660Z,7.41
2017-02-06T02:24:01.400Z,7.3
2017-02-06T02:25:11.997Z,7.19
2017-02-06T02:26:21.983Z,7.21
2017-02-06T02:27:32.726Z,7.26
2017-02-06T02:28:43.076Z,7.22
2017-02-06T02:29:53.432Z,7.16
2017-02-06T02:31:03.001Z,7.12
2017-02-06T02:32:13.399Z,7.08
2017-02-06T02:33:24.180Z,7.05
2017-02-06T02:34:34.144Z,7.15
2017-02-06T02:35:44.893Z,7.09
2017-02-06T02:36:55.239Z,7.04
2017-02-06T02:38:05.981Z,7
2017-02-06T02:39:16.726Z,7.01
2017-02-06T02:40:27.475Z,6.93
2017-02-06T02:41:38.220Z,7.01
2017-02-06T02:42:48.568Z,7.12
2017-02-06T02:43:59.322Z,7
2017-02-06T02:45:09.677Z,7.03
2017-02-06T02:46:20.029Z,6.98
2017-02-06T02:47:30.378Z,6.97
2017-02-06T02:48:41.158Z,6.85
2017-02-06T02:49:51.128Z,6.78
2017-02-06T02:51:01.475Z,6.91
2017-02-06T02:52:11.821Z,6.82
2017-02-06T02:53:22.172Z,6.83
2017-02-06T02:54:32.513Z,6.78
2017-02-06T02:55:43.258Z,6.83
2017-02-06T02:56:53.608Z,6.85
2017-02-06T02:58:03.947Z,6.78
2017-02-06T02:59:14.693Z,6.78
2017-02-06T03:00:25.051Z,6.76
2017-02-06T03:01:35.796Z,6.76
2017-02-06T03:33:09.719Z,3.96
2017-02-06T03:34:20.063Z,4
2017-02-06T03:35:30.825Z,4.02
2017-02-06T03:36:41.184Z,3.94
2017-02-06T03:37:51.540Z,4.1
2017-02-06T03:39:02.281Z,4.2
2017-02-06T03:40:12.650Z,4.28
2017-02-06T03:41:22.995Z,4.46
2017-02-06T03:42:33.731Z,4.51
2017-02-06T03:43:43.293Z,4.69
2017-02-06T03:44:54.034Z,4.88
2017-02-06T03:46:03.988Z,4.92
2017-02-06T03:47:14.793Z,5.15
2017-02-06T03:48:25.538Z,5.36
2017-02-06T03:49:35.884Z,5.36
2017-02-06T03:50:46.637Z,5.49
2017-02-06T03:51:57.384Z,5.52
2017-02-06T03:53:08.175Z,5.72
2017-02-06T03:54:18.522Z,5.72
2017-02-06T03:55:28.871Z,5.82
2017-02-06T03:56:39.275Z,6
2017-02-06T03:57:50.015Z,6.15
2017-02-06T03:59:00.810Z,6.06
2017-02-06T04:00:11.172Z,6.2
2017-02-06T04:01:21.524Z,6.2
2017-02-06T04:02:31.873Z,6.37
2017-02-06T04:03:42.219Z,6.31
2017-02-06T04:04:52.178Z,6.39
2017-02-06T04:06:02.141Z,6.36
2017-02-06T04:07:12.893Z,6.43
2017-02-06T04:08:23.297Z,6.37
2017-02-06T04:09:34.060Z,6.51
2017-02-06T04:10:44.418Z,6.47
2017-02-06T04:11:55.164Z,6.54
2017-02-06T04:13:05.521Z,6.43
2017-02-06T04:14:16.268Z,6.49
2017-02-06T04:15:27.004Z,6.46
2017-02-06T04:16:37.345Z,6.44
2017-02-06T04:17:47.690Z,6.52
2017-02-06T04:18:58.455Z,6.54
2017-02-06T04:20:09.201Z,6.51
2017-02-06T04:21:19.551Z,6.55
2017-02-06T04:22:30.304Z,6.54
2017-02-06T04:23:41.050Z,6.49
2017-02-06T04:24:51.405Z,6.54
2017-02-06T04:26:02.174Z,6.58
2017-02-06T04:27:12.922Z,6.54
2017-02-06T04:28:23.272Z,6.52
2017-02-06T04:29:34.050Z,6.58
2017-02-06T04:30:44.396Z,6.55
2017-02-06T04:31:54.348Z,6.51
2017-02-06T04:33:05.090Z,6.55
2017-02-06T04:34:15.452Z,6.44
2017-02-06T04:35:25.838Z,6.39
2017-02-06T04:36:36.596Z,6.46
2017-02-06T04:37:46.952Z,6.44
2017-02-06T04:38:57.705Z,6.49
2017-02-06T04:40:08.068Z,6.39
2017-02-06T04:41:18.426Z,6.26
2017-02-06T04:42:28.384Z,6.43
2017-02-06T04:43:38.776Z,6.36
2017-02-06T04:44:49.137Z,6.39
2017-02-06T04:45:59.893Z,6.37
2017-02-06T04:47:10.631Z,6.39
2017-02-06T04:48:20.592Z,6.4
2017-02-06T04:49:31.336Z,6.36
2017-02-06T04:50:41.690Z,6.46
2017-02-06T04:51:52.429Z,6.43
2017-02-06T04:53:02.784Z,6.43
2017-02-06T04:54:13.129Z,6.43
2017-02-06T04:55:23.480Z,6.52
2017-02-06T04:56:34.224Z,6.49
2017-02-06T04:57:44.580Z,6.49
2017-02-06T04:58:54.931Z,6.47
2017-02-06T05:00:05.684Z,6.46
2017-02-06T05:01:16.031Z,6.43
2017-02-06T05:02:26.788Z,6.47
2017-02-06T05:03:36.740Z,6.46
2017-02-06T05:04:47.088Z,6.44
2017-02-06T05:05:57.854Z,6.4
2017-02-06T05:07:08.215Z,6.44
2017-02-06T05:08:18.972Z,6.51
2017-02-06T05:09:29.322Z,6.52
2017-02-06T05:10:40.110Z,6.54
2017-02-06T05:11:50.867Z,6.52
2017-02-06T05:13:01.609Z,6.57
2017-02-06T05:14:12.347Z,6.54
2017-02-06T05:15:23.093Z,6.51
2017-02-06T05:16:33.439Z,6.42
2017-02-06T05:17:44.186Z,6.43
2017-02-06T05:18:54.937Z,6.46
2017-02-06T05:20:05.685Z,6.47
2017-02-06T05:21:15.646Z,6.46
2017-02-06T05:22:26.382Z,6.4
2017-02-06T05:23:36.740Z,6.49
2017-02-06T05:24:47.485Z,6.46
2017-02-06T05:25:57.837Z,6.36
2017-02-06T05:27:08.185Z,6.4
2017-02-06T05:28:18.156Z,6.47
2017-02-06T05:29:28.899Z,6.43
2017-02-06T05:30:39.646Z,6.49
2017-02-06T05:31:50.001Z,6.51
2017-02-06T05:33:00.355Z,6.54
2017-02-06T05:34:11.098Z,6.58
2017-02-06T05:35:21.053Z,6.6
2017-02-06T05:36:31.415Z,6.65
2017-02-06T05:37:42.166Z,6.62
2017-02-06T05:38:52.119Z,6.68
2017-02-06T05:40:02.475Z,6.73
2017-02-06T05:41:13.217Z,6.7
2017-02-06T05:42:23.163Z,6.61
2017-02-06T05:43:33.915Z,6.58
2017-02-06T05:44:44.283Z,6.61
2017-02-06T05:45:54.247Z,6.55
2017-02-06T05:47:04.994Z,6.46
2017-02-06T05:48:15.748Z,6.52
2017-02-06T05:49:26.483Z,6.46
2017-02-06T05:50:36.441Z,6.43
2017-02-06T05:51:46.787Z,6.46
2017-02-06T05:52:57.542Z,6.47
2017-02-06T05:54:07.899Z,6.46
2017-02-06T05:55:18.277Z,6.52
2017-02-06T05:56:28.644Z,6.47
2017-02-06T05:57:39.006Z,6.47
2017-02-06T05:58:49.752Z,6.57
2017-02-06T06:00:00.479Z,6.54
2017-02-06T06:01:10.840Z,6.42
2017-02-06T06:02:20.396Z,6.47
2017-02-06T06:03:30.750Z,6.49
2017-02-06T06:04:41.105Z,6.43
2017-02-06T06:05:51.870Z,6.47
2017-02-06T06:07:01.844Z,6.36
2017-02-06T06:08:12.211Z,6.43
2017-02-06T06:09:21.764Z,6.39
2017-02-06T06:10:32.119Z,6.49
2017-02-06T06:11:42.876Z,6.34
2017-02-06T06:12:53.223Z,6.42
2017-02-06T06:14:03.960Z,6.34
2017-02-06T06:15:14.327Z,6.29
2017-02-06T06:16:24.682Z,6.31
2017-02-06T06:17:34.626Z,6.34
2017-02-06T06:18:44.984Z,6.25
2017-02-06T06:19:55.338Z,6.18
2017-02-06T06:21:05.293Z,6.21
2017-02-06T06:22:16.043Z,6.21
2017-02-06T06:23:26.781Z,6.18
2017-02-06T06:24:37.145Z,6.18
2017-02-06T06:25:47.896Z,6.2
2017-02-06T06:26:58.655Z,6.14
2017-02-06T06:28:09.407Z,6.2
2017-02-06T06:29:20.196Z,6.13
2017-02-06T06:30:30.545Z,6.07
2017-02-06T06:31:40.897Z,6.1
2017-02-06T06:32:51.244Z,6.21
2017-02-06T06:34:01.999Z,6.39
2017-02-06T06:35:11.952Z,6.28
2017-02-06T06:36:22.688Z,6.33
2017-02-06T06:37:33.432Z,6.33
2017-02-06T06:38:43.782Z,6.28
2017-02-06T06:39:53.739Z,6.28
2017-02-06T06:41:04.086Z,6.31
2017-02-06T06:42:13.646Z,6.31
2017-02-06T06:43:23.593Z,6.25
2017-02-06T06:44:34.173Z,6.21
2017-02-06T06:45:44.926Z,6.36
2017-02-06T06:46:55.310Z,6.29
2017-02-06T06:48:06.056Z,6.33
2017-02-06T06:49:16.799Z,6.34
2017-02-06T06:50:27.150Z,6.33
2017-02-06T06:51:37.102Z,6.31
2017-02-06T06:52:47.463Z,6.28
2017-02-06T06:53:57.411Z,6.34
2017-02-06T06:55:08.203Z,6.36
2017-02-06T06:56:18.543Z,6.34
2017-02-06T06:57:28.905Z,6.33
2017-02-06T06:58:39.257Z,6.42
2017-02-06T06:59:50.012Z,6.34
2017-02-06T07:01:00.776Z,6.33
2017-02-06T07:02:11.512Z,6.29
2017-02-06T07:03:21.862Z,6.39
2017-02-06T07:04:32.212Z,6.42
2017-02-06T07:05:42.952Z,6.46
2017-02-06T07:06:52.515Z,6.51
2017-02-06T07:08:02.876Z,6.54
2017-02-06T07:09:13.228Z,6.49
2017-02-06T07:10:23.195Z,6.54
2017-02-06T07:11:33.941Z,6.58
2017-02-06T07:12:43.920Z,6.55
2017-02-06T07:13:54.675Z,6.55
2017-02-06T07:15:05.435Z,6.52
2017-02-06T07:16:15.796Z,6.58
2017-02-06T07:17:26.149Z,6.54
2017-02-06T07:18:36.106Z,6.57
2017-02-06T07:19:46.458Z,6.54
2017-02-06T07:20:57.205Z,6.68
2017-02-06T07:22:07.950Z,6.64
2017-02-06T07:23:18.692Z,6.65
2017-02-06T07:24:28.652Z,6.68
2017-02-06T07:25:38.611Z,6.73
2017-02-06T07:26:49.369Z,6.75
2017-02-06T07:28:00.118Z,6.76
2017-02-06T07:29:10.870Z,6.8
2017-02-06T07:30:21.221Z,6.83
2017-02-06T07:31:31.968Z,6.86
2017-02-06T07:32:42.327Z,6.83
2017-02-06T07:33:52.283Z,6.93
2017-02-06T07:35:02.633Z,6.9
2017-02-06T07:36:12.986Z,7.04
2017-02-06T07:37:23.183Z,7
2017-02-06T07:38:33.740Z,7.01
2017-02-06T07:39:44.504Z,6.85
2017-02-06T07:40:54.468Z,6.82
2017-02-06T07:42:04.421Z,6.75
2017-02-06T07:43:15.173Z,6.95
2017-02-06T07:44:25.912Z,6.97
2017-02-06T07:45:35.918Z,7.04
2017-02-06T07:46:46.660Z,6.98
2017-02-06T07:47:57.005Z,6.95
2017-02-06T07:49:07.756Z,6.98
2017-02-06T07:50:18.101Z,6.98
2017-02-06T07:51:28.454Z,6.86
2017-02-06T07:52:39.188Z,6.85
2017-02-06T07:53:49.566Z,6.83
2017-02-06T07:54:59.915Z,6.91
2017-02-06T07:56:10.269Z,6.97
2017-02-06T07:57:20.607Z,7.01
2017-02-06T07:58:30.597Z,7.11
2017-02-06T07:59:41.336Z,7.11
2017-02-06T08:00:51.716Z,7.16
2017-02-06T08:02:02.076Z,7.12
2017-02-06T08:03:12.436Z,7.11
2017-02-06T08:04:23.176Z,7.19
2017-02-06T08:05:33.925Z,7.18
2017-02-06T08:06:44.901Z,7.22
2017-02-06T08:07:55.648Z,7.27
2017-02-06T08:09:06.449Z,7.26
2017-02-06T08:10:16.807Z,7.37
2017-02-06T08:11:27.154Z,7.22
2017-02-06T08:12:38.154Z,7.36
2017-02-06T08:13:48.522Z,7.33
2017-02-06T08:14:59.288Z,7.41
2017-02-06T08:16:10.044Z,7.54
2017-02-06T08:17:20.397Z,7.47
2017-02-06T08:18:31.138Z,7.58
2017-02-06T08:19:41.500Z,7.64
2017-02-06T08:20:52.258Z,7.68
2017-02-06T08:22:01.825Z,7.75
2017-02-06T08:23:11.784Z,7.89
2017-02-06T08:24:22.145Z,7.92
2017-02-06T08:25:31.714Z,8.17
2017-02-06T08:26:42.465Z,8.19
2017-02-06T08:27:52.812Z,8.34
2017-02-06T08:29:03.169Z,8.34
2017-02-06T08:30:13.138Z,8.42
2017-02-06T08:31:23.488Z,8.49
2017-02-06T08:32:33.834Z,8.36
2017-02-06T08:33:44.597Z,8.47
2017-02-06T08:34:55.643Z,8.49
2017-02-06T08:36:06.389Z,8.46
2017-02-06T08:37:16.350Z,8.43
2017-02-06T08:38:27.106Z,8.44
2017-02-06T08:39:37.090Z,8.47
2017-02-06T08:40:47.436Z,8.53
2017-02-06T08:41:57.814Z,8.57
2017-02-06T08:43:08.169Z,8.58
2017-02-06T08:44:18.131Z,8.68
2017-02-06T08:45:28.877Z,8.71
2017-02-06T08:46:39.624Z,8.76
2017-02-06T08:47:50.370Z,8.72
2017-02-06T08:49:00.318Z,8.69
2017-02-06T08:50:11.109Z,8.58
2017-02-06T08:51:21.869Z,8.57
2017-02-06T08:52:32.627Z,8.46
2017-02-06T08:53:42.973Z,8.54
2017-02-06T08:54:53.329Z,8.46
2017-02-06T08:56:04.098Z,8.39
2017-02-06T08:57:14.841Z,8.28
2017-02-06T08:58:25.199Z,8.28
2017-02-06T08:59:35.546Z,8.16
2017-02-06T09:00:45.537Z,8.22
2017-02-06T09:01:56.286Z,8.19
2017-02-06T09:03:06.264Z,8.17
2017-02-06T09:04:16.239Z,8.17
2017-02-06T09:05:26.596Z,8.16
2017-02-06T09:06:37.345Z,8.21
2017-02-06T09:07:47.304Z,8.16
2017-02-06T09:08:57.270Z,8.16
2017-02-06T09:10:07.628Z,8.17
2017-02-06T09:11:18.391Z,8.26
2017-02-06T09:12:29.146Z,8.25
2017-02-06T09:13:39.898Z,8.19
2017-02-06T09:14:50.283Z,8.35
2017-02-06T09:16:00.622Z,8.31
2017-02-06T09:17:10.978Z,8.35
2017-02-06T09:18:21.720Z,8.43
2017-02-06T09:19:32.481Z,8.43
2017-02-06T09:20:42.818Z,8.39
2017-02-06T09:21:53.188Z,8.36
2017-02-06T09:23:03.556Z,8.26
2017-02-06T09:24:13.522Z,8.36
2017-02-06T09:25:23.889Z,8.26
2017-02-06T09:26:34.627Z,8.22
2017-02-06T09:27:44.583Z,8.25
2017-02-06T09:28:54.938Z,8.39
2017-02-06T09:30:05.287Z,8.35
2017-02-06T09:31:15.634Z,8.35
2017-02-06T09:32:25.633Z,8.39
2017-02-06T09:33:35.583Z,8.36
2017-02-06T09:34:45.947Z,8.44
2017-02-06T09:35:56.296Z,8.35
2017-02-06T09:37:06.651Z,8.34
2017-02-06T09:38:17.414Z,8.29
2017-02-06T09:39:27.386Z,8.29
2017-02-06T09:40:37.738Z,8.29
2017-02-06T09:41:48.104Z,8.24
2017-02-06T09:42:58.458Z,8.09
2017-02-06T09:44:08.820Z,8.13
2017-02-06T09:45:19.165Z,8.06
2017-02-06T09:46:29.519Z,8.04
2017-02-06T09:47:39.876Z,7.99
2017-02-06T09:48:50.619Z,8.03
2017-02-06T09:50:00.570Z,8.16
2017-02-06T09:51:10.931Z,8.16
2017-02-06T09:52:21.684Z,8.14
2017-02-06T09:53:31.847Z,8.22
2017-02-06T09:54:42.599Z,8.34
2017-02-06T09:55:52.976Z,8.26
2017-02-06T09:57:03.325Z,8.35
2017-02-06T09:58:13.692Z,8.42
2017-02-06T09:59:24.054Z,8.46
2017-02-06T10:00:34.851Z,8.47
2017-02-06T10:01:45.210Z,8.64
2017-02-06T10:02:55.975Z,8.68
2017-02-06T10:04:06.350Z,8.86
2017-02-06T10:05:17.097Z,8.94
2017-02-06T10:06:27.836Z,9.12
2017-02-06T10:07:38.597Z,9.2
2017-02-06T10:08:48.956Z,9.44
2017-02-06T10:09:59.711Z,9.56
2017-02-06T10:11:10.483Z,9.64
2017-02-06T10:12:20.903Z,9.71
2017-02-06T10:13:31.265Z,9.85
2017-02-06T10:14:41.215Z,9.89
2017-02-06T10:15:51.609Z,10.02
2017-02-06T10:17:02.364Z,10.13
2017-02-06T10:18:13.105Z,10.14
2017-02-06T10:19:23.855Z,10.23
2017-02-06T10:20:34.639Z,10.15
2017-02-06T10:21:44.673Z,10.07
2017-02-06T10:22:55.072Z,9.99
2017-02-06T10:24:05.429Z,9.88
2017-02-06T10:25:15.786Z,9.78
2017-02-06T10:26:26.131Z,9.75
2017-02-06T10:27:36.495Z,9.77
2017-02-06T10:28:47.236Z,9.82
2017-02-06T10:29:58.005Z,9.85
2017-02-06T10:31:08.364Z,9.81
2017-02-06T10:32:18.329Z,9.93
2017-02-06T10:33:28.739Z,9.85
2017-02-06T10:34:39.500Z,9.82
2017-02-06T10:35:49.461Z,9.82
2017-02-06T10:36:59.412Z,9.85
2017-02-06T10:38:09.379Z,9.82
2017-02-06T10:39:19.730Z,9.78
2017-02-06T10:40:30.481Z,9.89
2017-02-06T10:41:41.462Z,9.88
2017-02-06T10:42:52.214Z,9.82
2017-02-06T10:44:02.972Z,9.88
2017-02-06T10:45:12.547Z,9.82
2017-02-06T10:46:22.910Z,9.82
2017-02-06T10:47:33.300Z,9.82
2017-02-06T10:48:44.054Z,9.96
2017-02-06T10:49:54.797Z,9.93
2017-02-06T10:51:04.989Z,9.92
2017-02-06T10:52:15.351Z,9.96
2017-02-06T10:53:26.112Z,9.84
2017-02-06T10:54:36.463Z,9.82
2017-02-06T10:55:47.209Z,9.89
2017-02-06T10:56:57.955Z,9.84
2017-02-06T10:58:08.735Z,9.85
2017-02-06T10:59:19.490Z,9.85
2017-02-06T11:00:29.843Z,9.95
2017-02-06T11:01:40.207Z,9.88
2017-02-06T11:02:50.566Z,9.82
2017-02-06T11:04:00.911Z,9.84
2017-02-06T11:05:11.664Z,9.84
2017-02-06T11:06:22.030Z,9.81
2017-02-06T11:07:31.208Z,9.89
2017-02-06T11:08:41.979Z,9.85
2017-02-06T11:09:52.326Z,9.98
2017-02-06T11:11:02.688Z,9.9
2017-02-06T11:12:13.055Z,9.85
2017-02-06T11:13:23.405Z,9.84
2017-02-06T11:14:34.151Z,9.71
2017-02-06T11:15:44.889Z,9.82
2017-02-06T11:16:55.639Z,9.84
2017-02-06T11:18:06.393Z,9.9
2017-02-06T11:19:16.349Z,9.84
2017-02-06T11:20:26.297Z,9.92
2017-02-06T11:21:37.059Z,9.84
2017-02-06T11:22:47.832Z,9.81
2017-02-06T11:23:58.587Z,9.85
2017-02-06T11:25:08.941Z,9.72
2017-02-06T11:26:19.701Z,9.74
2017-02-06T11:27:30.453Z,9.6
2017-02-06T11:28:40.808Z,9.59
2017-02-06T11:29:51.571Z,9.66
2017-02-06T11:31:01.923Z,9.6
2017-02-06T11:32:12.714Z,9.53
2017-02-06T11:33:23.073Z,9.62
2017-02-06T11:34:33.822Z,9.57
2017-02-06T11:35:44.575Z,9.59
2017-02-06T11:36:55.327Z,9.47
2017-02-06T11:38:05.275Z,9.5
2017-02-06T11:39:16.049Z,9.5
2017-02-06T11:40:26.799Z,9.41
2017-02-06T11:41:37.549Z,9.47
2017-02-06T11:42:48.298Z,9.45
2017-02-06T11:43:58.653Z,9.47
2017-02-06T11:45:09.021Z,9.39
2017-02-06T11:46:18.593Z,9.41
2017-02-06T11:47:28.964Z,9.27
2017-02-06T11:48:38.933Z,9.34
2017-02-06T11:49:49.289Z,9.39
2017-02-06T11:50:59.635Z,9.38
2017-02-06T11:52:09.988Z,9.47
2017-02-06T11:53:20.167Z,9.44
2017-02-06T11:54:30.137Z,9.42
2017-02-06T11:55:40.500Z,9.52
2017-02-06T11:56:50.464Z,9.53
2017-02-06T11:58:00.827Z,9.56
2017-02-06T11:59:11.196Z,9.56
2017-02-06T12:00:21.957Z,9.47
2017-02-06T12:01:31.532Z,9.47
2017-02-06T12:02:42.287Z,9.35
2017-02-06T12:03:53.031Z,9.41
2017-02-06T12:05:03.781Z,9.38
2017-02-06T12:06:14.144Z,9.27
2017-02-06T12:07:24.894Z,9.21
2017-02-06T12:08:35.673Z,9.14
2017-02-06T12:09:46.024Z,9.12
2017-02-06T12:10:56.370Z,8.95
2017-02-06T12:12:07.122Z,8.95
2017-02-06T12:13:17.910Z,8.72
2017-02-06T12:14:27.468Z,8.83
2017-02-06T12:15:37.818Z,8.76
2017-02-06T12:16:48.159Z,8.77
2017-02-06T12:17:58.495Z,8.71
2017-02-06T12:19:08.840Z,8.76
2017-02-06T12:20:19.186Z,8.72
2017-02-06T12:21:29.139Z,8.82
2017-02-06T12:22:39.507Z,8.8
2017-02-06T12:23:50.265Z,8.8
2017-02-06T12:25:01.019Z,8.8
2017-02-06T12:26:11.779Z,9
2017-02-06T12:27:22.561Z,8.95
2017-02-06T12:28:32.120Z,9.05
2017-02-06T12:29:42.482Z,9.09
2017-02-06T12:30:53.276Z,9.11
2017-02-06T12:32:03.628Z,8.98
2017-02-06T12:33:14.374Z,9.08
2017-02-06T12:34:24.326Z,9.11
2017-02-06T12:35:34.293Z,9
2017-02-06T12:36:44.660Z,9.04
2017-02-06T12:37:55.017Z,9.05
2017-02-06T12:39:05.764Z,9.05
2017-02-06T12:40:16.527Z,8.95
2017-02-06T12:41:26.896Z,8.79
2017-02-06T12:42:36.847Z,8.8
2017-02-06T12:43:47.210Z,8.86
2017-02-06T12:44:56.782Z,8.72
2017-02-06T12:46:06.760Z,8.85
2017-02-06T12:47:17.111Z,8.74
2017-02-06T12:48:27.462Z,8.8
2017-02-06T12:49:38.203Z,8.79
2017-02-06T12:50:47.766Z,8.85
2017-02-06T12:51:58.534Z,8.79
2017-02-06T12:53:09.320Z,8.9
2017-02-06T12:54:19.672Z,8.86
2017-02-06T12:55:29.643Z,8.94
2017-02-06T12:56:40.410Z,8.94
2017-02-06T12:57:50.381Z,8.94
2017-02-06T12:59:00.750Z,9.04
2017-02-06T13:00:10.709Z,8.95
2017-02-06T13:01:21.298Z,8.92
2017-02-06T13:02:31.683Z,8.9
2017-02-06T13:03:42.035Z,8.95
2017-02-06T13:04:52.408Z,8.97
2017-02-06T13:06:03.163Z,8.94
2017-02-06T13:07:13.523Z,8.92
2017-02-06T13:08:23.485Z,8.85
2017-02-06T13:09:34.246Z,8.76
2017-02-06T13:10:45.006Z,8.8
2017-02-06T13:11:55.371Z,8.85
2017-02-06T13:13:05.763Z,8.72
2017-02-06T13:14:16.119Z,8.74
2017-02-06T13:15:26.482Z,8.62
2017-02-06T13:16:36.872Z,8.6
2017-02-06T13:17:47.651Z,8.58
2017-02-06T13:18:58.401Z,8.62
2017-02-06T13:20:09.143Z,8.42
2017-02-06T13:21:19.889Z,8.5
2017-02-06T13:22:30.271Z,8.39
2017-02-06T13:23:41.022Z,8.4
2017-02-06T13:24:51.761Z,8.31
2017-02-06T13:26:01.317Z,8.19
2017-02-06T13:27:12.064Z,8.19
2017-02-06T13:28:22.424Z,8.04
2017-02-06T13:29:33.173Z,8.07
2017-02-06T13:30:43.915Z,8.01
2017-02-06T13:31:54.296Z,7.92
2017-02-06T13:33:05.036Z,7.89
2017-02-06T13:34:15.794Z,7.92
2017-02-06T13:35:26.140Z,7.8
2017-02-06T13:36:36.893Z,7.82
2017-02-06T13:37:47.241Z,7.73
2017-02-06T13:38:57.195Z,7.82
2017-02-06T13:40:07.952Z,7.82
2017-02-06T13:41:18.299Z,7.71
2017-02-06T13:42:28.660Z,7.67
2017-02-06T13:43:38.226Z,7.73
2017-02-06T13:44:48.573Z,7.68
2017-02-06T13:45:58.926Z,7.7
2017-02-06T13:47:08.895Z,7.58
2017-02-06T13:48:19.655Z,7.58
2017-02-06T13:49:30.026Z,7.63
2017-02-06T13:50:40.394Z,7.58
2017-02-06T13:51:51.151Z,7.64
2017-02-06T13:53:01.549Z,7.56
2017-02-06T13:54:11.504Z,7.63
2017-02-06T13:55:21.857Z,7.49
2017-02-06T13:56:32.621Z,7.47
2017-02-06T13:57:42.581Z,7.45
2017-02-06T13:58:53.318Z,7.51
2017-02-06T14:00:04.065Z,7.45
2017-02-06T14:01:14.457Z,7.47
2017-02-06T14:02:25.215Z,7.36
2017-02-06T14:03:35.976Z,7.52
2017-02-06T14:04:45.942Z,7.39
2017-02-06T14:05:56.313Z,7.34
2017-02-06T14:07:07.058Z,7.51
2017-02-06T14:08:17.807Z,7.47
2017-02-06T14:09:28.151Z,7.45
2017-02-06T14:10:38.538Z,7.48
2017-02-06T14:11:48.882Z,7.48
2017-02-06T14:12:59.667Z,7.49
2017-02-06T14:14:09.633Z,7.45
2017-02-06T14:15:20.389Z,7.55
2017-02-06T14:16:30.755Z,7.47
2017-02-06T14:17:41.115Z,7.44
2017-02-06T14:18:51.471Z,7.49
2017-02-06T14:20:02.230Z,7.48
2017-02-06T14:21:12.976Z,7.51
2017-02-06T14:22:22.935Z,7.52
2017-02-06T14:23:33.295Z,7.45
2017-02-06T14:24:42.850Z,7.45
2017-02-06T14:25:53.629Z,7.45
2017-02-06T14:27:04.380Z,7.4
2017-02-06T14:28:14.765Z,7.34
2017-02-06T14:29:25.510Z,7.29
2017-02-06T14:30:35.481Z,7.36
2017-02-06T14:31:45.437Z,7.3
2017-02-06T14:32:55.789Z,7.19
2017-02-06T14:34:06.153Z,7.21
2017-02-06T14:35:16.510Z,7.27
2017-02-06T14:36:26.898Z,7.29
2017-02-06T14:37:37.251Z,7.21
2017-02-06T14:38:47.602Z,7.18
2017-02-06T14:39:57.951Z,7.12
2017-02-06T14:41:08.351Z,7.15
2017-02-06T14:42:19.093Z,7.16
2017-02-06T14:43:29.854Z,7.08
2017-02-06T14:44:40.215Z,7.21
2017-02-06T14:45:51.063Z,7.12
2017-02-06T14:47:01.429Z,7.13
2017-02-06T14:48:11.390Z,7.15
2017-02-06T14:49:22.181Z,7.11
2017-02-06T14:50:32.932Z,7.12
2017-02-06T14:51:43.280Z,7.08
2017-02-06T14:52:54.033Z,6.97
2017-02-06T14:54:04.807Z,7.04
2017-02-06T14:55:15.561Z,6.97
2017-02-06T14:56:25.508Z,6.97
2017-02-06T14:57:35.872Z,7.04
2017-02-06T14:59:55.691Z,6.94
2017-02-06T15:01:06.445Z,6.97
2017-02-06T15:02:16.043Z,7
2017-02-06T15:03:26.796Z,6.94
2017-02-06T15:04:36.363Z,7.03
2017-02-06T15:05:46.725Z,7.03
2017-02-06T15:06:56.672Z,6.91
2017-02-06T15:08:07.430Z,6.97
2017-02-06T15:09:18.196Z,6.97
2017-02-06T15:10:28.586Z,6.85
2017-02-06T15:11:38.929Z,6.91
2017-02-06T15:12:48.910Z,6.83
2017-02-06T15:13:59.653Z,6.9
2017-02-06T15:15:10.005Z,6.83
2017-02-06T15:16:20.356Z,6.85
2017-02-06T15:17:30.713Z,6.8
2017-02-06T15:18:41.071Z,6.8
2017-02-06T15:19:51.050Z,6.78
2017-02-06T15:21:01.799Z,6.73
2017-02-06T15:22:12.155Z,6.7
2017-02-06T15:23:22.551Z,6.76
2017-02-06T15:24:32.922Z,6.68
2017-02-06T15:25:43.265Z,6.61
2017-02-06T15:26:53.629Z,6.64
2017-02-06T15:28:04.383Z,6.62
2017-02-06T15:29:15.126Z,6.58
2017-02-06T15:30:25.707Z,6.65
2017-02-06T15:31:36.458Z,6.67
2017-02-06T15:32:46.817Z,6.67
2017-02-06T15:33:57.181Z,6.6
2017-02-06T15:35:07.535Z,6.64
2017-02-06T15:36:18.293Z,6.57
2017-02-06T15:37:29.077Z,6.57
2017-02-06T15:38:40.077Z,6.52
2017-02-06T15:39:50.870Z,6.55
2017-02-06T15:41:01.216Z,6.54
2017-02-06T15:42:11.579Z,6.57
2017-02-06T15:43:21.964Z,6.6
2017-02-06T15:44:32.346Z,6.58
2017-02-06T15:45:42.705Z,6.57
2017-02-06T15:46:52.272Z,6.6
2017-02-06T15:48:03.048Z,6.57
2017-02-06T15:49:13.794Z,6.57
2017-02-06T15:50:23.340Z,6.51
2017-02-06T15:51:34.106Z,6.51
2017-02-06T15:52:44.452Z,6.51
2017-02-06T15:53:55.223Z,6.46
2017-02-06T15:55:05.191Z,6.4
2017-02-06T15:56:15.555Z,6.42
2017-02-06T15:57:25.908Z,6.54
2017-02-06T15:58:36.270Z,6.46
2017-02-06T15:59:47.011Z,6.44
2017-02-06T16:00:57.760Z,6.44
2017-02-06T16:02:08.123Z,6.49
2017-02-06T16:03:18.083Z,6.47
2017-02-06T16:04:28.457Z,6.51
2017-02-06T16:05:38.427Z,6.44
2017-02-06T16:06:49.178Z,6.51
2017-02-06T16:07:59.948Z,6.47
2017-02-06T16:09:10.690Z,6.43
2017-02-06T16:10:21.451Z,6.47
2017-02-06T16:11:31.803Z,6.42